Time;durP1;ratioP1;P1;durP2;ratioP2;P2;SDS_P1;SDS_P2;PMS_P1;PMS_P2;Temp;Humidity;BMP_temperature;BMP_pressure;BME280_temperature;BME280_humidity;BME280_pressure;Samples;Min_cycle;Max_cycle;Signal;HPM_P1;HPM_P2
2021/01/04 00:02:09;;;;;;;39.13;17.67;;;2.10;99.90;;;;;;5062522;28;20283;-75
2021/01/04 00:05:18;;;;;;;35.70;17.57;;;2.10;99.90;;;;;;5059809;28;20293;-76
2021/01/04 00:08:18;;;;;;;34.50;17.27;;;2.10;99.90;;;;;;5076869;28;20726;-75
2021/01/04 00:11:14;;;;;;;36.57;17.00;;;2.10;99.90;;;;;;5050460;28;20228;-75
2021/01/04 00:13:54;;;;;;;39.17;16.93;;;2.10;99.90;;;;;;5045039;28;20265;-76
2021/01/04 00:16:29;;;;;;;35.53;17.60;;;2.10;99.90;;;;;;5073854;28;20293;-75
2021/01/04 00:19:04;;;;;;;35.10;17.07;;;2.20;99.90;;;;;;5075141;28;20202;-75
2021/01/04 00:21:36;;;;;;;34.90;17.60;;;2.20;99.90;;;;;;5075592;28;20698;-75
2021/01/04 00:24:06;;;;;;;35.97;17.07;;;2.20;99.90;;;;;;5076402;28;20201;-75
2021/01/04 00:26:39;;;;;;;37.80;16.97;;;2.20;99.90;;;;;;5076472;28;20638;-76
2021/01/04 00:29:06;;;;;;;34.70;16.40;;;2.20;99.90;;;;;;5075741;28;20674;-76
2021/01/04 00:31:37;;;;;;;38.70;17.63;;;2.20;99.90;;;;;;5075199;28;20204;-75
2021/01/04 00:34:09;;;;;;;33.67;17.13;;;2.30;99.90;;;;;;5076045;28;20221;-75
2021/01/04 00:36:47;;;;;;;31.77;15.40;;;2.30;99.90;;;;;;5077767;28;20208;-75
2021/01/04 00:39:41;;;;;;;32.40;17.13;;;2.30;99.90;;;;;;5078111;28;20291;-75
2021/01/04 00:42:21;;;;;;;32.50;16.77;;;2.30;99.90;;;;;;5075038;28;20766;-76
2021/01/04 00:44:57;;;;;;;31.87;16.07;;;2.30;99.90;;;;;;5075788;28;20734;-75
2021/01/04 00:47:31;;;;;;;33.20;16.73;;;2.40;99.90;;;;;;5072848;28;20203;-74
2021/01/04 00:50:05;;;;;;;31.97;15.77;;;2.30;99.90;;;;;;5073525;28;20296;-74
2021/01/04 00:52:42;;;;;;;37.33;16.63;;;2.40;99.90;;;;;;5077072;28;20289;-75
2021/01/04 00:55:32;;;;;;;33.90;14.37;;;2.40;99.90;;;;;;5073090;28;20300;-75
2021/01/04 00:58:22;;;;;;;33.63;15.97;;;2.40;99.90;;;;;;5077755;28;20235;-75
2021/01/04 01:00:54;;;;;;;29.13;15.80;;;2.40;99.90;;;;;;5068457;28;20960;-75
2021/01/04 01:03:58;;;;;;;30.80;15.37;;;2.40;99.90;;;;;;5072678;28;20210;-75
2021/01/04 01:06:35;;;;;;;30.27;15.03;;;2.40;99.90;;;;;;5013338;28;20221;-75
2021/01/04 01:09:04;;;;;;;30.70;14.97;;;2.40;99.90;;;;;;5067394;28;20231;-75
2021/01/04 01:11:54;;;;;;;29.00;14.70;;;2.30;99.90;;;;;;5076520;28;20758;-75
2021/01/04 01:14:25;;;;;;;25.43;13.93;;;2.40;99.90;;;;;;5077677;28;20248;-75
2021/01/04 01:17:27;;;;;;;28.07;13.53;;;2.30;99.90;;;;;;5076189;28;20221;-75
2021/01/04 01:19:56;;;;;;;27.33;14.07;;;2.40;99.90;;;;;;5075183;28;20204;-76
2021/01/04 01:22:30;;;;;;;29.63;14.40;;;2.40;99.90;;;;;;5070672;28;20300;-74
2021/01/04 01:24:58;;;;;;;29.17;14.43;;;2.40;99.90;;;;;;5074388;28;20200;-75
2021/01/04 01:27:42;;;;;;;29.13;14.93;;;2.40;99.90;;;;;;5075837;28;20207;-75
2021/01/04 01:30:36;;;;;;;29.93;15.47;;;2.50;99.90;;;;;;5073058;28;20201;-75
2021/01/04 01:33:29;;;;;;;22.70;12.47;;;2.50;99.90;;;;;;5072172;28;20619;-76
2021/01/04 01:36:11;;;;;;;24.27;13.07;;;2.50;99.90;;;;;;5076553;28;20207;-75
2021/01/04 01:39:06;;;;;;;21.43;12.70;;;2.50;99.90;;;;;;5076459;28;20242;-75
2021/01/04 01:42:15;;;;;;;23.87;12.93;;;2.50;99.90;;;;;;5073385;28;20721;-75
2021/01/04 01:44:48;;;;;;;23.73;13.00;;;2.50;99.90;;;;;;5075278;28;20231;-74
2021/01/04 01:47:24;;;;;;;25.67;12.63;;;2.50;99.90;;;;;;5072310;28;20203;-73
2021/01/04 01:50:03;;;;;;;28.30;12.77;;;2.50;99.90;;;;;;5071795;28;20304;-75
2021/01/04 01:52:51;;;;;;;26.77;13.67;;;2.50;99.90;;;;;;5071357;28;20193;-74
2021/01/04 01:55:39;;;;;;;24.33;13.53;;;2.50;99.90;;;;;;5075064;28;20269;-75
2021/01/04 01:58:55;;;;;;;28.00;13.93;;;2.50;99.90;;;;;;5073467;28;20196;-74
2021/01/04 02:01:28;;;;;;;25.60;13.57;;;2.50;99.90;;;;;;5067955;28;20205;-74
2021/01/04 02:04:01;;;;;;;27.50;14.43;;;2.50;99.90;;;;;;5079499;28;20205;-76
2021/01/04 02:06:47;;;;;;;24.90;12.90;;;2.50;99.90;;;;;;5070414;28;20271;-74
2021/01/04 02:09:16;;;;;;;26.63;14.13;;;2.50;99.90;;;;;;5077319;28;20220;-74
2021/01/04 02:11:53;;;;;;;32.80;14.97;;;2.50;99.90;;;;;;5072573;28;20538;-75
2021/01/04 02:14:30;;;;;;;24.60;13.30;;;2.50;99.90;;;;;;5074467;28;20248;-75
2021/01/04 02:17:12;;;;;;;26.93;14.30;;;2.60;99.90;;;;;;5075553;28;20248;-75
2021/01/04 02:20:02;;;;;;;25.90;14.70;;;2.50;99.90;;;;;;5077652;28;20200;-74
2021/01/04 02:22:51;;;;;;;22.83;13.33;;;2.50;99.90;;;;;;5077926;28;20295;-74
2021/01/04 02:25:18;;;;;;;26.37;13.93;;;2.60;99.90;;;;;;5076943;28;20269;-75
2021/01/04 02:27:50;;;;;;;26.63;13.50;;;2.60;99.90;;;;;;5076076;28;20291;-75
2021/01/04 02:30:18;;;;;;;27.80;14.47;;;2.60;99.90;;;;;;5082716;28;20704;-75
2021/01/04 02:32:44;;;;;;;27.87;13.87;;;2.70;99.90;;;;;;5080124;28;20200;-74
2021/01/04 02:35:13;;;;;;;29.80;14.47;;;2.70;99.90;;;;;;5076973;28;20342;-74
2021/01/04 02:37:39;;;;;;;27.07;15.17;;;2.60;99.90;;;;;;5076592;28;20277;-74
2021/01/04 02:40:10;;;;;;;26.63;14.07;;;2.70;99.90;;;;;;5079742;28;20204;-74
2021/01/04 02:42:39;;;;;;;28.70;14.13;;;2.70;99.90;;;;;;5076867;28;20205;-74
2021/01/04 02:45:11;;;;;;;28.70;14.10;;;2.70;99.90;;;;;;5080235;28;20209;-75
2021/01/04 02:48:17;;;;;;;26.13;14.17;;;2.70;99.90;;;;;;5078548;28;20557;-74
2021/01/04 02:50:52;;;;;;;24.23;13.50;;;2.70;99.90;;;;;;5076553;28;20200;-74
2021/01/04 02:53:58;;;;;;;27.10;13.20;;;2.70;99.90;;;;;;5079085;28;20646;-73
2021/01/04 02:56:53;;;;;;;29.10;13.53;;;2.80;99.90;;;;;;5077960;28;20196;-73
2021/01/04 02:59:45;;;;;;;27.73;13.63;;;2.80;99.90;;;;;;5076745;28;20216;-74
2021/01/04 03:02:17;;;;;;;22.70;13.80;;;2.70;99.90;;;;;;5063962;28;20205;-74
2021/01/04 03:04:47;;;;;;;27.50;13.67;;;2.80;99.90;;;;;;5064966;28;20586;-74
2021/01/04 03:07:16;;;;;;;25.63;13.33;;;2.80;99.90;;;;;;5076948;28;20552;-75
2021/01/04 03:09:44;;;;;;;31.63;14.27;;;2.80;99.90;;;;;;5077828;28;20208;-75
2021/01/04 03:12:15;;;;;;;30.33;15.43;;;2.80;99.90;;;;;;5081334;28;20311;-75
2021/01/04 03:15:04;;;;;;;28.87;14.20;;;2.80;99.90;;;;;;5076132;28;20286;-75
2021/01/04 03:17:40;;;;;;;25.20;13.43;;;2.80;99.90;;;;;;5072884;28;20202;-75
2021/01/04 03:20:11;;;;;;;24.10;13.93;;;2.80;99.90;;;;;;5076571;28;20197;-75
2021/01/04 03:22:38;;;;;;;30.43;14.73;;;2.80;99.90;;;;;;5075903;28;20328;-75
2021/01/04 03:25:15;;;;;;;24.50;13.80;;;2.80;99.90;;;;;;5077296;28;20208;-75
2021/01/04 03:27:44;;;;;;;28.27;14.17;;;2.80;99.90;;;;;;5076459;28;20502;-75
2021/01/04 03:30:13;;;;;;;26.03;14.43;;;2.80;99.90;;;;;;5079077;28;20243;-74
2021/01/04 03:32:40;;;;;;;25.07;13.43;;;2.80;99.90;;;;;;5074760;28;20205;-74
2021/01/04 03:35:08;;;;;;;27.90;14.07;;;2.80;99.90;;;;;;5079821;28;20799;-75
2021/01/04 03:37:34;;;;;;;27.33;13.30;;;2.80;99.90;;;;;;5077438;28;20231;-74
2021/01/04 03:40:01;;;;;;;28.10;13.47;;;2.90;99.90;;;;;;5073916;28;20218;-74
2021/01/04 03:42:27;;;;;;;27.47;14.87;;;2.90;99.90;;;;;;5079000;28;20216;-74
2021/01/04 03:44:53;;;;;;;30.30;13.83;;;2.80;99.90;;;;;;5076157;28;20206;-76
2021/01/04 03:47:21;;;;;;;25.93;14.23;;;2.90;99.90;;;;;;5076382;28;20201;-76
2021/01/04 03:49:47;;;;;;;28.47;12.87;;;2.90;99.90;;;;;;5070987;28;20213;-76
2021/01/04 03:52:13;;;;;;;28.93;14.97;;;2.90;99.90;;;;;;5078049;28;20224;-76
2021/01/04 03:54:42;;;;;;;27.57;14.27;;;2.90;99.90;;;;;;5074069;28;20623;-76
2021/01/04 03:57:08;;;;;;;27.17;13.37;;;2.80;99.90;;;;;;5075713;28;20248;-76
2021/01/04 03:59:35;;;;;;;27.37;13.80;;;2.80;99.90;;;;;;5078416;28;20737;-76
2021/01/04 04:02:01;;;;;;;29.60;14.00;;;2.80;99.90;;;;;;5072807;28;20209;-75
2021/01/04 04:04:29;;;;;;;27.47;13.90;;;2.90;99.90;;;;;;5077006;28;20668;-75
2021/01/04 04:06:55;;;;;;;29.17;14.40;;;2.90;99.90;;;;;;5076976;28;20201;-76
2021/01/04 04:09:23;;;;;;;31.27;15.17;;;2.80;99.90;;;;;;5074892;28;20292;-75
2021/01/04 04:11:50;;;;;;;27.23;13.93;;;2.80;99.90;;;;;;5079083;28;20237;-77
2021/01/04 04:14:17;;;;;;;28.37;14.87;;;2.80;99.90;;;;;;5077200;28;20243;-75
2021/01/04 04:16:44;;;;;;;28.33;14.57;;;2.80;99.90;;;;;;5078935;28;20208;-75
2021/01/04 04:19:12;;;;;;;26.43;14.20;;;2.90;99.90;;;;;;5076794;28;20601;-76
2021/01/04 04:21:39;;;;;;;29.57;13.83;;;2.90;99.90;;;;;;5076456;28;20232;-76
2021/01/04 04:24:07;;;;;;;26.23;13.83;;;2.90;99.90;;;;;;5076786;28;20197;-75
2021/01/04 04:26:33;;;;;;;29.50;13.87;;;2.90;99.90;;;;;;5078442;28;20208;-75
2021/01/04 04:29:00;;;;;;;24.50;13.57;;;2.90;99.90;;;;;;5076252;28;20300;-76
2021/01/04 04:31:27;;;;;;;25.97;13.67;;;2.90;99.90;;;;;;5078350;28;20741;-77
2021/01/04 04:33:54;;;;;;;28.80;13.50;;;2.90;99.90;;;;;;5077737;28;20488;-75
2021/01/04 04:36:24;;;;;;;31.13;14.40;;;2.90;99.90;;;;;;5075973;28;20311;-76
2021/01/04 04:38:52;;;;;;;26.20;13.23;;;2.90;99.90;;;;;;5076201;28;20288;-77
2021/01/04 04:41:27;;;;;;;28.47;13.80;;;2.90;99.90;;;;;;5075336;28;20254;-75
2021/01/04 04:44:00;;;;;;;25.20;13.37;;;2.80;99.90;;;;;;5078323;28;20295;-75
2021/01/04 04:46:41;;;;;;;23.70;11.67;;;2.80;99.90;;;;;;5077562;28;20292;-76
2021/01/04 04:49:16;;;;;;;24.03;12.70;;;2.80;99.90;;;;;;5072460;28;20201;-77
2021/01/04 04:51:56;;;;;;;22.63;12.73;;;2.80;99.90;;;;;;5075485;28;20205;-75
2021/01/04 04:54:50;;;;;;;24.27;12.33;;;3.30;99.90;;;;;;5075493;28;20215;-77
2021/01/04 04:57:46;;;;;;;21.40;11.93;;;2.90;99.90;;;;;;5077598;28;20601;-76
2021/01/04 05:00:38;;;;;;;23.07;12.47;;;2.90;99.90;;;;;;5076263;28;20231;-75
2021/01/04 05:03:28;;;;;;;20.90;11.50;;;2.90;99.90;;;;;;5081196;28;20227;-75
2021/01/04 05:06:05;;;;;;;18.53;10.97;;;2.90;99.90;;;;;;5078610;28;20598;-76
2021/01/04 05:08:46;;;;;;;21.40;11.67;;;2.90;99.90;;;;;;5077048;28;20205;-76
2021/01/04 05:11:15;;;;;;;19.67;11.00;;;2.90;99.90;;;;;;5076445;28;20605;-77
2021/01/04 05:13:47;;;;;;;20.70;12.30;;;2.90;99.90;;;;;;5075106;28;20233;-76
2021/01/04 05:16:19;;;;;;;21.67;11.67;;;2.90;99.90;;;;;;5073623;28;20239;-76
2021/01/04 05:19:19;;;;;;;19.97;11.27;;;2.90;99.90;;;;;;5075699;28;20300;-76
2021/01/04 05:22:08;;;;;;;22.37;11.83;;;3.00;99.90;;;;;;5070683;28;20217;-76
2021/01/04 05:24:50;;;;;;;22.00;12.03;;;2.90;99.90;;;;;;5078176;28;20210;-76
2021/01/04 05:27:53;;;;;;;19.93;11.07;;;2.90;99.90;;;;;;5076947;28;20209;-76
2021/01/04 05:30:41;;;;;;;17.93;10.03;;;2.90;99.90;;;;;;5060206;28;20244;-76
2021/01/04 05:33:30;;;;;;;18.27;10.93;;;2.90;99.90;;;;;;5073233;28;20677;-76
2021/01/04 05:36:06;;;;;;;23.40;11.70;;;2.90;99.90;;;;;;5076299;28;20303;-76
2021/01/04 05:38:41;;;;;;;18.63;11.60;;;2.90;99.90;;;;;;5075445;28;20218;-76
2021/01/04 05:41:44;;;;;;;21.83;11.83;;;2.90;99.90;;;;;;5076331;28;20288;-76
2021/01/04 05:44:27;;;;;;;23.10;11.67;;;2.90;99.90;;;;;;5074424;28;20604;-75
2021/01/04 05:47:02;;;;;;;22.20;11.33;;;2.90;99.90;;;;;;5072436;28;20296;-75
2021/01/04 05:49:32;;;;;;;19.20;10.57;;;2.90;99.90;;;;;;5071648;28;20288;-75
2021/01/04 05:51:59;;;;;;;21.20;10.93;;;3.00;99.90;;;;;;5074890;28;20291;-75
2021/01/04 05:54:30;;;;;;;20.77;11.50;;;2.90;99.90;;;;;;5082776;28;20283;-76
2021/01/04 05:57:12;;;;;;;21.60;11.20;;;2.90;99.90;;;;;;5085561;28;20269;-75
2021/01/04 05:59:47;;;;;;;21.10;12.03;;;2.90;99.90;;;;;;5081746;28;20210;-75
2021/01/04 06:02:22;;;;;;;18.13;11.17;;;2.90;99.90;;;;;;5064737;28;20531;-74
2021/01/04 06:04:49;;;;;;;23.13;12.17;;;2.90;99.90;;;;;;5065277;28;20304;-75
2021/01/04 06:07:16;;;;;;;22.77;13.37;;;2.90;99.90;;;;;;5081627;28;20725;-75
2021/01/04 06:09:42;;;;;;;24.67;12.70;;;3.00;99.90;;;;;;5081073;28;20237;-74
2021/01/04 06:12:18;;;;;;;19.10;11.17;;;3.00;99.90;;;;;;5081832;28;20260;-76
2021/01/04 06:14:56;;;;;;;22.40;12.53;;;2.90;99.90;;;;;;5059339;28;679526;-74
2021/01/04 06:17:34;;;;;;;21.90;11.77;;;3.00;99.90;;;;;;5079910;28;20237;-75
2021/01/04 06:20:11;;;;;;;24.33;12.77;;;3.00;99.90;;;;;;5084730;28;20201;-75
2021/01/04 06:22:37;;;;;;;22.43;12.90;;;3.00;99.90;;;;;;5086791;28;20283;-75
2021/01/04 06:25:06;;;;;;;21.37;12.80;;;3.00;99.90;;;;;;5078874;28;20295;-77
2021/01/04 06:27:37;;;;;;;23.27;12.13;;;3.00;99.90;;;;;;5074565;28;20197;-76
2021/01/04 06:30:19;;;;;;;19.97;12.40;;;3.00;99.90;;;;;;5073815;28;20524;-75
2021/01/04 06:32:47;;;;;;;23.47;12.67;;;3.00;99.90;;;;;;5074206;28;20288;-75
2021/01/04 06:35:22;;;;;;;23.43;12.30;;;3.00;99.90;;;;;;5073200;28;20263;-75
2021/01/04 06:37:50;;;;;;;24.27;13.73;;;3.00;99.90;;;;;;5077688;28;20261;-75
2021/01/04 06:40:32;;;;;;;22.37;12.53;;;2.90;99.90;;;;;;5076578;28;20300;-74
2021/01/04 06:43:10;;;;;;;22.47;12.57;;;3.00;99.90;;;;;;5073122;28;20220;-75
2021/01/04 06:45:51;;;;;;;20.33;12.00;;;3.00;99.90;;;;;;5073459;28;20236;-75
2021/01/04 06:48:21;;;;;;;22.43;12.37;;;3.00;99.90;;;;;;5074381;28;20312;-75
2021/01/04 06:51:21;;;;;;;21.97;12.90;;;3.10;99.90;;;;;;5073040;28;20207;-73
2021/01/04 06:54:07;;;;;;;22.40;12.37;;;3.00;99.90;;;;;;5078670;28;20650;-76
2021/01/04 06:57:02;;;;;;;22.63;13.33;;;3.10;99.90;;;;;;5074670;28;20201;-73
2021/01/04 07:00:06;;;;;;;22.97;13.13;;;3.10;99.90;;;;;;5075457;28;20633;-73
2021/01/04 07:03:01;;;;;;;21.63;13.13;;;3.10;99.90;;;;;;5073431;28;20208;-75
2021/01/04 07:05:55;;;;;;;21.13;12.50;;;3.20;99.90;;;;;;5076354;28;20225;-75
2021/01/04 07:09:11;;;;;;;22.93;13.07;;;3.10;99.90;;;;;;5079168;28;20292;-77
2021/01/04 07:11:44;;;;;;;24.90;13.63;;;3.20;99.90;;;;;;5079495;28;20243;-76
2021/01/04 07:14:44;;;;;;;21.37;12.87;;;3.10;99.90;;;;;;5072885;28;20237;-77
2021/01/04 07:17:40;;;;;;;26.67;13.60;;;3.20;99.90;;;;;;5076591;28;20571;-76
2021/01/04 07:20:22;;;;;;;23.20;12.77;;;3.20;99.90;;;;;;5065953;28;20272;-73
2021/01/04 07:23:05;;;;;;;22.67;13.37;;;3.20;99.90;;;;;;5076057;28;20304;-78
2021/01/04 07:25:44;;;;;;;23.47;13.03;;;3.20;99.90;;;;;;5079170;28;20239;-76
2021/01/04 07:28:22;;;;;;;26.03;14.77;;;3.20;99.90;;;;;;5075010;28;20213;-76
2021/01/04 07:30:56;;;;;;;27.57;14.07;;;3.20;99.90;;;;;;5078163;28;20197;-75
2021/01/04 07:33:44;;;;;;;23.57;13.23;;;3.20;99.90;;;;;;5077612;28;20620;-77
2021/01/04 07:36:18;;;;;;;23.43;14.03;;;3.20;99.90;;;;;;5075446;28;20650;-76
2021/01/04 07:38:54;;;;;;;22.17;12.87;;;3.20;99.90;;;;;;5076678;28;20209;-76
2021/01/04 07:41:31;;;;;;;23.97;13.33;;;3.20;99.90;;;;;;5079981;28;20369;-75
2021/01/04 07:44:28;;;;;;;23.03;13.33;;;3.20;99.90;;;;;;5079879;28;20225;-76
2021/01/04 07:47:39;;;;;;;23.97;14.07;;;3.20;99.90;;;;;;5079261;28;20205;-77
2021/01/04 07:50:33;;;;;;;23.47;13.17;;;3.20;99.90;;;;;;5081657;28;20707;-74
2021/01/04 07:53:36;;;;;;;27.50;14.63;;;3.30;99.90;;;;;;5079974;28;20264;-73
2021/01/04 07:56:33;;;;;;;25.30;14.73;;;3.30;99.90;;;;;;5051750;28;20205;-75
2021/01/04 07:59:29;;;;;;;22.17;13.23;;;3.30;99.90;;;;;;5081592;28;20239;-79
2021/01/04 08:02:29;;;;;;;22.50;13.17;;;3.30;99.90;;;;;;5073501;28;20193;-77
2021/01/04 08:05:14;;;;;;;24.13;14.00;;;3.30;99.90;;;;;;5079745;28;20205;-74
2021/01/04 08:08:16;;;;;;;21.30;12.67;;;3.30;99.90;;;;;;5077957;28;20236;-76
2021/01/04 08:11:31;;;;;;;24.33;13.43;;;3.40;99.90;;;;;;5067848;28;20208;-73
2021/01/04 08:14:35;;;;;;;22.60;13.13;;;3.30;99.90;;;;;;5051757;28;20225;-75
2021/01/04 08:17:14;;;;;;;24.30;13.97;;;3.40;99.90;;;;;;5076270;28;20535;-74
2021/01/04 08:19:43;;;;;;;23.03;13.63;;;3.40;99.90;;;;;;5078847;28;20213;-76
2021/01/04 08:22:31;;;;;;;24.47;13.53;;;3.40;99.90;;;;;;5076698;28;20680;-77
2021/01/04 08:25:07;;;;;;;22.57;13.87;;;3.40;99.90;;;;;;5078878;28;20229;-77
2021/01/04 08:27:46;;;;;;;26.43;14.47;;;3.40;99.90;;;;;;5077949;28;20212;-77
2021/01/04 08:30:19;;;;;;;24.33;14.00;;;3.40;99.90;;;;;;5078473;28;20201;-80
2021/01/04 08:33:08;;;;;;;22.90;13.23;;;3.30;99.90;;;;;;5080957;28;20201;-74
2021/01/04 08:35:39;;;;;;;24.93;13.93;;;3.40;99.90;;;;;;5077106;28;20701;-75
2021/01/04 08:38:38;;;;;;;28.90;14.77;;;3.30;99.90;;;;;;5077445;28;20251;-76
2021/01/04 08:41:24;;;;;;;24.03;13.30;;;3.40;99.90;;;;;;5077964;28;20578;-75
2021/01/04 08:43:55;;;;;;;27.23;15.03;;;3.50;99.90;;;;;;5080479;28;20220;-75
2021/01/04 08:46:36;;;;;;;24.90;14.47;;;3.70;99.90;;;;;;5080044;28;20257;-77
2021/01/04 08:49:19;;;;;;;25.20;13.63;;;3.40;99.90;;;;;;5084818;28;20669;-80
2021/01/04 08:51:48;;;;;;;24.63;14.43;;;3.40;99.90;;;;;;5079681;28;20411;-78
2021/01/04 08:57:13;;;;;;;25.40;15.27;;;3.50;99.90;;;;;;5084468;28;20205;-79
2021/01/04 08:59:54;;;;;;;26.13;15.07;;;3.50;99.90;;;;;;5088252;28;20209;-82
2021/01/04 09:02:36;;;;;;;26.67;14.80;;;3.60;99.90;;;;;;5073927;28;20222;-79
2021/01/04 09:05:07;;;;;;;27.77;15.43;;;3.60;99.90;;;;;;5073384;28;20219;-78
2021/01/04 09:07:34;;;;;;;25.40;14.10;;;3.60;99.90;;;;;;5072246;28;20220;-79
2021/01/04 09:10:14;;;;;;;28.63;15.73;;;3.70;99.90;;;;;;5078066;28;20273;-79
2021/01/04 09:12:46;;;;;;;28.63;15.73;;;3.80;99.90;;;;;;5078922;28;20229;-80
2021/01/04 09:15:32;;;;;;;27.57;16.70;;;3.70;99.90;;;;;;5077407;28;20213;-79
2021/01/04 09:18:36;;;;;;;26.73;14.90;;;3.70;99.90;;;;;;5074195;28;20197;-79
2021/01/04 09:21:11;;;;;;;28.70;15.37;;;3.70;99.90;;;;;;5074338;28;20665;-77
2021/01/04 09:23:40;;;;;;;29.27;15.80;;;3.70;99.90;;;;;;5078199;28;20630;-78
2021/01/04 09:26:14;;;;;;;29.50;15.90;;;3.60;99.90;;;;;;5076371;28;20273;-79
2021/01/04 09:28:46;;;;;;;29.67;16.23;;;3.60;99.90;;;;;;5077189;28;20304;-79
2021/01/04 09:31:17;;;;;;;27.83;16.37;;;3.60;99.90;;;;;;5073290;28;20205;-78
2021/01/04 09:33:47;;;;;;;26.60;16.03;;;3.60;99.90;;;;;;5074408;28;20609;-78
2021/01/04 09:36:16;;;;;;;30.93;17.67;;;3.60;99.90;;;;;;5072271;28;20655;-78
2021/01/04 09:38:45;;;;;;;29.17;17.13;;;3.60;99.90;;;;;;5073317;28;20240;-78
2021/01/04 09:41:15;;;;;;;30.17;16.77;;;3.60;99.90;;;;;;5077995;28;20224;-78
2021/01/04 09:43:42;;;;;;;28.93;17.47;;;3.60;99.90;;;;;;5071071;28;20572;-79
2021/01/04 09:46:23;;;;;;;28.57;16.37;;;3.60;99.90;;;;;;5077877;28;20861;-79
2021/01/04 09:48:56;;;;;;;31.23;17.93;;;3.60;99.90;;;;;;5075370;28;20213;-80
2021/01/04 09:51:33;;;;;;;31.43;18.67;;;3.60;99.90;;;;;;5075157;28;20662;-78
2021/01/04 09:54:06;;;;;;;29.53;17.40;;;3.60;99.90;;;;;;5072038;28;20248;-77
2021/01/04 09:56:35;;;;;;;29.83;17.07;;;3.70;99.90;;;;;;5073399;28;20200;-78
2021/01/04 09:59:08;;;;;;;31.43;17.97;;;3.70;99.90;;;;;;5073366;28;20651;-79
2021/01/04 10:01:43;;;;;;;36.87;18.40;;;3.70;99.90;;;;;;5075555;28;20204;-78
2021/01/04 10:04:10;;;;;;;32.83;18.60;;;3.70;99.90;;;;;;5075009;28;20204;-80
2021/01/04 10:06:40;;;;;;;29.63;17.97;;;3.70;99.90;;;;;;5073845;28;20217;-75
2021/01/04 10:09:14;;;;;;;32.63;17.53;;;3.70;99.90;;;;;;5074529;28;20228;-74
2021/01/04 10:11:44;;;;;;;30.03;18.37;;;3.70;99.90;;;;;;5069296;28;20233;-73
2021/01/04 10:14:13;;;;;;;33.13;17.97;;;3.70;99.90;;;;;;5069613;28;20264;-70
2021/01/04 10:16:43;;;;;;;32.50;18.50;;;3.70;99.90;;;;;;5069237;28;20256;-76
2021/01/04 10:19:15;;;;;;;33.17;18.07;;;3.80;99.90;;;;;;5072740;28;20288;-74
2021/01/04 10:21:51;;;;;;;30.63;17.50;;;3.80;99.90;;;;;;5072785;28;20206;-76
2021/01/04 10:24:22;;;;;;;34.80;18.23;;;3.80;99.90;;;;;;5073353;28;20603;-78
2021/01/04 10:26:50;;;;;;;31.97;18.57;;;3.80;99.90;;;;;;5073066;28;20224;-78
2021/01/04 10:29:20;;;;;;;33.07;18.47;;;3.80;99.90;;;;;;5071481;28;20713;-77
2021/01/04 10:31:48;;;;;;;34.90;19.33;;;3.80;99.90;;;;;;5073945;28;20697;-78
2021/01/04 10:34:17;;;;;;;31.37;19.30;;;3.90;99.90;;;;;;5072340;28;20233;-76
2021/01/04 10:36:56;;;;;;;32.43;18.43;;;3.90;99.90;;;;;;5066128;28;20620;-75
2021/01/04 10:39:31;;;;;;;32.10;18.97;;;3.90;99.90;;;;;;5071487;28;20299;-77
2021/01/04 10:42:06;;;;;;;32.80;18.00;;;4.00;99.90;;;;;;5075247;28;20636;-74
2021/01/04 10:44:34;;;;;;;36.00;19.77;;;3.90;99.90;;;;;;5072871;28;20284;-73
2021/01/04 10:47:11;;;;;;;32.33;18.53;;;3.90;99.90;;;;;;5073370;28;20299;-77
2021/01/04 10:49:37;;;;;;;31.80;17.90;;;4.00;99.90;;;;;;5071350;28;20224;-75
2021/01/04 10:52:05;;;;;;;34.33;18.67;;;4.00;99.90;;;;;;5074814;28;20289;-77
2021/01/04 10:54:39;;;;;;;37.83;20.60;;;4.10;99.90;;;;;;5075361;28;20232;-77
2021/01/04 10:57:18;;;;;;;33.10;18.57;;;4.20;99.90;;;;;;5075216;28;20255;-75
2021/01/04 10:59:54;;;;;;;35.50;20.40;;;4.10;99.90;;;;;;5080058;28;20197;-78
2021/01/04 11:02:21;;;;;;;30.93;18.23;;;4.10;99.90;;;;;;5075398;28;20576;-77
2021/01/04 11:04:53;;;;;;;33.43;20.50;;;4.00;99.90;;;;;;5073789;28;20209;-77
2021/01/04 11:07:28;;;;;;;36.00;19.80;;;4.00;99.90;;;;;;5075132;28;20251;-77
2021/01/04 11:09:54;;;;;;;32.37;19.87;;;4.10;99.90;;;;;;5069113;28;20846;-78
2021/01/04 11:12:23;;;;;;;38.47;20.93;;;4.10;99.90;;;;;;5075361;28;20576;-77
2021/01/04 11:14:59;;;;;;;34.53;19.30;;;4.10;99.90;;;;;;5071491;28;20289;-76
2021/01/04 11:17:30;;;;;;;36.10;20.13;;;4.10;99.90;;;;;;5073662;28;20250;-76
2021/01/04 11:20:06;;;;;;;35.17;20.23;;;4.10;99.90;;;;;;5074158;28;20225;-77
2021/01/04 11:22:33;;;;;;;36.70;19.37;;;4.10;99.90;;;;;;5072068;28;20241;-77
2021/01/04 11:25:00;;;;;;;40.27;20.97;;;4.10;99.90;;;;;;5070506;28;20201;-74
2021/01/04 11:27:26;;;;;;;38.10;20.50;;;4.10;99.90;;;;;;5074140;28;20270;-74
2021/01/04 11:29:53;;;;;;;43.17;21.33;;;4.10;99.90;;;;;;5075014;28;20300;-75
2021/01/04 11:32:21;;;;;;;40.10;21.87;;;4.10;99.90;;;;;;5072682;28;20621;-76
2021/01/04 11:34:51;;;;;;;41.47;21.27;;;4.10;99.90;;;;;;5070940;28;20225;-74
2021/01/04 11:37:19;;;;;;;38.17;21.47;;;4.10;99.90;;;;;;5074939;28;20296;-76
2021/01/04 11:39:46;;;;;;;40.63;21.80;;;4.00;99.90;;;;;;5074065;28;20237;-76
2021/01/04 11:42:13;;;;;;;39.90;21.70;;;4.10;99.90;;;;;;5071484;28;20292;-75
2021/01/04 11:44:39;;;;;;;39.27;22.17;;;4.20;99.90;;;;;;5071914;28;20259;-76
2021/01/04 11:47:06;;;;;;;40.43;22.20;;;4.20;99.90;;;;;;5071678;28;20293;-76
2021/01/04 11:49:33;;;;;;;39.03;22.93;;;4.30;99.90;;;;;;5074813;28;20737;-75
2021/01/04 11:52:01;;;;;;;37.73;21.40;;;4.30;99.90;;;;;;5073248;28;20208;-76
2021/01/04 11:54:27;;;;;;;39.87;22.57;;;4.40;99.90;;;;;;5072277;28;20263;-74
2021/01/04 11:56:54;;;;;;;42.40;22.30;;;4.50;99.90;;;;;;5073083;28;20210;-74
2021/01/04 11:59:20;;;;;;;41.33;22.37;;;4.50;99.90;;;;;;5071483;28;20213;-75
2021/01/04 12:01:47;;;;;;;44.03;21.77;;;4.50;99.90;;;;;;5067726;28;20228;-74
2021/01/04 12:04:14;;;;;;;37.63;22.30;;;4.50;99.90;;;;;;5066359;28;20608;-76
2021/01/04 12:06:40;;;;;;;38.33;21.70;;;4.50;99.90;;;;;;5071092;28;20201;-75
2021/01/04 12:09:09;;;;;;;41.20;21.77;;;4.50;99.90;;;;;;5073842;28;20208;-74
2021/01/04 12:11:38;;;;;;;39.43;23.07;;;4.50;99.90;;;;;;5075110;28;20257;-74
2021/01/04 12:14:07;;;;;;;39.27;22.60;;;4.50;99.90;;;;;;5071473;28;20229;-74
2021/01/04 12:16:34;;;;;;;37.90;22.17;;;4.60;99.90;;;;;;5071416;28;20205;-75
2021/01/04 12:19:00;;;;;;;38.80;22.07;;;4.60;99.90;;;;;;5068999;28;20684;-76
2021/01/04 12:21:27;;;;;;;40.13;22.70;;;4.60;99.90;;;;;;5073589;28;20259;-77
2021/01/04 12:23:53;;;;;;;38.40;22.33;;;4.60;99.90;;;;;;5073261;28;20292;-76
2021/01/04 12:26:22;;;;;;;39.87;21.47;;;4.70;99.90;;;;;;5069198;28;20291;-77
2021/01/04 12:28:49;;;;;;;39.00;21.37;;;4.70;99.90;;;;;;5073708;28;20201;-78
2021/01/04 12:31:16;;;;;;;36.60;20.83;;;4.70;99.90;;;;;;5069744;28;20210;-76
2021/01/04 12:33:44;;;;;;;36.17;21.40;;;4.70;99.90;;;;;;5074148;28;20228;-75
2021/01/04 12:36:16;;;;;;;44.47;23.60;;;4.70;99.90;;;;;;5072657;28;20231;-76
2021/01/04 12:38:42;;;;;;;39.33;22.40;;;4.70;99.90;;;;;;5076256;28;20607;-76
2021/01/04 12:41:09;;;;;;;37.00;21.77;;;4.70;99.90;;;;;;5071356;28;20252;-76
2021/01/04 12:43:36;;;;;;;35.70;20.90;;;4.80;99.90;;;;;;5072138;28;20220;-74
2021/01/04 12:46:03;;;;;;;37.40;21.57;;;4.80;99.90;;;;;;5072985;28;20290;-76
2021/01/04 12:48:30;;;;;;;40.80;22.83;;;4.80;99.90;;;;;;5074391;28;20213;-75
2021/01/04 12:50:57;;;;;;;39.87;22.47;;;4.70;99.90;;;;;;5071399;28;20201;-74
2021/01/04 12:53:23;;;;;;;38.13;21.87;;;4.70;99.90;;;;;;5072617;28;20209;-77
2021/01/04 12:55:50;;;;;;;41.27;23.97;;;4.60;99.90;;;;;;5071876;28;20229;-75
2021/01/04 12:58:16;;;;;;;42.70;22.93;;;4.60;99.90;;;;;;5073185;28;20611;-75
2021/01/04 13:00:45;;;;;;;36.00;21.53;;;4.60;99.90;;;;;;5073336;28;20319;-75
2021/01/04 13:03:12;;;;;;;38.20;22.30;;;4.60;99.90;;;;;;5073896;28;20213;-75
2021/01/04 13:05:39;;;;;;;38.07;23.30;;;4.60;99.90;;;;;;5071018;28;20311;-78
2021/01/04 13:08:05;;;;;;;36.53;21.67;;;4.60;99.90;;;;;;5072925;28;20248;-75
2021/01/04 13:10:32;;;;;;;42.10;24.30;;;4.60;99.90;;;;;;5071821;28;20205;-77
2021/01/04 13:13:02;;;;;;;40.07;23.10;;;4.60;99.90;;;;;;5072728;28;20302;-78
2021/01/04 13:15:28;;;;;;;41.03;23.63;;;4.60;99.90;;;;;;5071589;28;20292;-79
2021/01/04 13:17:56;;;;;;;37.53;22.83;;;4.60;99.90;;;;;;5080400;28;20630;-79
2021/01/04 13:20:22;;;;;;;42.57;24.87;;;4.60;99.90;;;;;;5075803;28;20642;-77
2021/01/04 13:22:49;;;;;;;40.23;23.20;;;4.50;99.90;;;;;;5070585;28;20643;-77
2021/01/04 13:25:16;;;;;;;42.17;23.50;;;4.50;99.90;;;;;;5073646;28;20291;-76